Time,TemperatureF,DewpointF,PressureIn,WindDirection,WindDirectionDegrees,WindSpeedMPH,WindSpeedGustMPH,Humidity,HourlyPrecipIn,Conditions,Clouds,dailyrainin,SoftwareType,DateUTC
2013-05-11 00:14:00,62.4,59.4,29.81,SW,225,0.0,-999.0,90,-99.99,,,0.00,Acu-Link.com,2013-05-11 04:14:00,
2013-05-11 00:29:00,61.9,59.2,29.81,SW,225,0.0,-999.0,91,-99.99,,,0.00,Acu-Link.com,2013-05-11 04:29:00,
2013-05-11 00:44:00,61.0,59.0,29.82,ESE,112,0.0,-999.0,93,-99.99,,,0.00,Acu-Link.com,2013-05-11 04:44:00,
2013-05-11 00:59:00,60.6,59.5,29.82,ENE,67,0.0,-999.0,96,-99.99,,,0.00,Acu-Link.com,2013-05-11 04:59:00,
2013-05-11 01:14:00,60.1,59.0,29.82,ENE,67,0.0,-999.0,96,-99.99,,,0.00,Acu-Link.com,2013-05-11 05:14:00,
2013-05-11 01:30:00,59.9,59.3,29.82,ESE,112,0.0,-999.0,98,-99.99,,,0.00,Acu-Link.com,2013-05-11 05:30:00,
2013-05-11 01:45:00,59.7,59.4,29.81,SW,225,0.0,-999.0,99,-99.99,,,0.00,Acu-Link.com,2013-05-11 05:45:00,
2013-05-11 02:00:00,59.5,59.2,29.80,NNW,337,0.0,-999.0,99,-99.99,,,0.00,Acu-Link.com,2013-05-11 06:00:00,
2013-05-11 02:15:00,59.4,59.1,29.79,East,90,0.0,-999.0,99,-99.99,,,0.00,Acu-Link.com,2013-05-11 06:15:00,
2013-05-11 02:30:00,59.5,59.2,29.79,NE,45,0.0,-999.0,99,-99.99,,,0.00,Acu-Link.com,2013-05-11 06:30:00,
2013-05-11 02:45:00,59.9,59.3,29.79,NNE,22,0.0,-999.0,98,-99.99,,,0.00,Acu-Link.com,2013-05-11 06:45:00,
2013-05-11 03:00:00,60.3,59.4,29.79,East,90,0.0,-999.0,97,-99.99,,,0.00,Acu-Link.com,2013-05-11 07:00:00,
2013-05-11 03:15:00,60.4,59.5,29.79,SE,135,0.0,-999.0,97,-99.99,,,0.00,Acu-Link.com,2013-05-11 07:15:00,
2013-05-11 03:30:00,60.6,60.0,29.78,East,90,0.0,-999.0,98,-99.99,,,0.00,Acu-Link.com,2013-05-11 07:30:00,
2013-05-11 03:45:00,60.4,59.8,29.78,ESE,112,0.0,-999.0,98,-99.99,,,0.00,Acu-Link.com,2013-05-11 07:45:00,
2013-05-11 04:01:00,60.4,59.8,29.77,ENE,67,0.0,-999.0,98,-99.99,,,0.00,Acu-Link.com,2013-05-11 08:01:00,
2013-05-11 04:16:00,60.4,59.8,29.78,East,90,0.0,-999.0,98,-99.99,,,0.00,Acu-Link.com,2013-05-11 08:16:00,
2013-05-11 04:31:00,60.4,59.8,29.77,ESE,112,0.0,-999.0,98,-99.99,,,0.00,Acu-Link.com,2013-05-11 08:31:00,
2013-05-11 04:47:00,60.8,59.9,29.78,NNE,22,0.0,-999.0,97,-99.99,,,0.00,Acu-Link.com,2013-05-11 08:47:00,
2013-05-11 05:02:00,61.2,60.0,29.77,East,90,0.0,-999.0,96,-99.99,,,0.00,Acu-Link.com,2013-05-11 09:02:00,
2013-05-11 05:17:00,61.0,60.1,29.77,ESE,112,1.1,-999.0,97,-99.99,,,0.00,Acu-Link.com,2013-05-11 09:17:00,
2013-05-11 05:32:00,60.6,60.0,29.77,SSE,157,0.0,-999.0,98,-99.99,,,0.00,Acu-Link.com,2013-05-11 09:32:00,
2013-05-11 05:47:00,60.4,60.1,29.77,ENE,67,0.0,-999.0,99,-99.99,,,0.00,Acu-Link.com,2013-05-11 09:47:00,
2013-05-11 06:02:00,60.3,60.0,29.77,South,180,0.0,-999.0,99,-99.99,,,0.00,Acu-Link.com,2013-05-11 10:02:00,
2013-05-11 06:17:00,60.3,60.0,29.76,SE,135,0.0,-999.0,99,-99.99,,,0.00,Acu-Link.com,2013-05-11 10:17:00,
2013-05-11 06:32:00,60.1,59.8,29.76,SSE,157,0.0,-999.0,99,-99.99,,,0.00,Acu-Link.com,2013-05-11 10:32:00,
2013-05-11 06:47:00,60.1,59.8,29.77,ESE,112,0.0,-999.0,99,-99.99,,,0.00,Acu-Link.com,2013-05-11 10:47:00,
2013-05-11 07:03:00,60.3,60.0,29.77,SSE,157,0.0,-999.0,99,-99.99,,,0.00,Acu-Link.com,2013-05-11 11:03:00,
2013-05-11 07:18:00,60.6,60.3,29.78,SW,225,0.0,-999.0,99,-99.99,,,0.00,Acu-Link.com,2013-05-11 11:18:00,
2013-05-11 07:33:00,61.2,60.9,29.78,ESE,112,0.0,-999.0,99,-99.99,,,0.00,Acu-Link.com,2013-05-11 11:33:00,
2013-05-11 07:48:00,61.5,61.2,29.78,WNW,292,0.0,-999.0,99,-99.99,,,0.00,Acu-Link.com,2013-05-11 11:48:00,
2013-05-11 08:03:00,62.4,62.1,29.78,South,180,0.0,-999.0,99,-99.99,,,0.00,Acu-Link.com,2013-05-11 12:03:00,
2013-05-11 08:19:00,63.5,62.6,29.78,NNE,22,0.0,-999.0,97,-99.99,,,0.00,Acu-Link.com,2013-05-11 12:19:00,
2013-05-11 08:34:00,64.0,62.5,29.78,SSE,157,1.7,-999.0,95,-99.99,,,0.00,Acu-Link.com,2013-05-11 12:34:00,
2013-05-11 08:49:00,64.6,62.5,29.78,SSW,202,2.7,-999.0,93,-99.99,,,0.00,Acu-Link.com,2013-05-11 12:49:00,
2013-05-11 09:04:00,66.2,63.2,29.78,SE,135,0.0,-999.0,90,-99.99,,,0.00,Acu-Link.com,2013-05-11 13:04:00,
2013-05-11 09:19:00,66.6,62.3,29.78,South,180,4.2,-999.0,86,-99.99,,,0.00,Acu-Link.com,2013-05-11 13:19:00,
2013-05-11 09:37:00,67.5,63.2,29.78,SSW,202,2.2,-999.0,86,-99.99,,,0.00,Acu-Link.com,2013-05-11 13:37:00,
2013-05-11 09:55:00,72.5,63.7,29.76,South,180,3.7,-999.0,74,-99.99,,,0.00,Acu-Link.com,2013-05-11 13:55:00,
2013-05-11 10:10:00,74.5,64.5,29.77,ESE,112,3.2,-999.0,71,-99.99,,,0.00,Acu-Link.com,2013-05-11 14:10:00,
2013-05-11 10:25:00,71.8,64.6,29.77,East,90,2.7,-999.0,78,-99.99,,,0.00,Acu-Link.com,2013-05-11 14:25:00,
2013-05-11 10:41:00,71.8,64.9,29.78,ENE,67,2.2,-999.0,79,-99.99,,,0.00,Acu-Link.com,2013-05-11 14:41:00,
2013-05-11 10:56:00,70.7,64.2,29.78,WNW,292,2.7,-999.0,80,-99.99,,,0.00,Acu-Link.com,2013-05-11 14:56:00,
2013-05-11 11:11:00,70.9,64.8,29.78,SSW,202,2.7,-999.0,81,-99.99,,,0.00,Acu-Link.com,2013-05-11 15:11:00,
2013-05-11 11:26:00,71.6,63.6,29.77,SSE,157,3.7,-999.0,76,-99.99,,,0.00,Acu-Link.com,2013-05-11 15:26:00,
2013-05-11 11:42:00,69.8,63.7,29.77,SW,225,4.2,-999.0,81,-99.99,,,0.00,Acu-Link.com,2013-05-11 15:42:00,
2013-05-11 11:57:00,73.4,65.0,29.78,WNW,292,3.7,-999.0,75,-99.99,,,0.00,Acu-Link.com,2013-05-11 15:57:00,
2013-05-11 12:12:00,73.6,65.2,29.77,SSE,157,1.1,-999.0,75,-99.99,,,0.00,Acu-Link.com,2013-05-11 16:12:00,
2013-05-11 12:27:00,73.2,64.4,29.76,WNW,292,2.2,-999.0,74,-99.99,,,0.00,Acu-Link.com,2013-05-11 16:27:00,
2013-05-11 12:42:00,75.6,64.7,29.76,WSW,247,6.8,-999.0,69,-99.99,,,0.00,Acu-Link.com,2013-05-11 16:42:00,
2013-05-11 12:57:00,73.4,64.2,29.75,North,0,2.2,-999.0,73,-99.99,,,0.00,Acu-Link.com,2013-05-11 16:57:00,
2013-05-11 13:12:00,73.9,64.7,29.75,SSW,202,2.2,-999.0,73,-99.99,,,0.00,Acu-Link.com,2013-05-11 17:12:00,
2013-05-11 13:27:00,75.4,66.1,29.76,ESE,112,2.2,-999.0,73,-99.99,,,0.00,Acu-Link.com,2013-05-11 17:27:00,
2013-05-11 13:42:00,74.3,64.7,29.75,NE,45,4.2,-999.0,72,-99.99,,,0.00,Acu-Link.com,2013-05-11 17:42:00,
2013-05-11 13:58:00,74.1,64.1,29.75,South,180,3.7,-999.0,71,-99.99,,,0.00,Acu-Link.com,2013-05-11 17:58:00,
2013-05-11 14:13:00,73.8,64.2,29.75,ESE,112,4.2,-999.0,72,-99.99,,,0.00,Acu-Link.com,2013-05-11 18:13:00,
2013-05-11 14:28:00,74.7,64.7,29.76,SSE,157,3.2,-999.0,71,-99.99,,,0.00,Acu-Link.com,2013-05-11 18:28:00,
2013-05-11 14:43:00,75.7,65.2,29.75,West,270,1.7,-999.0,70,-99.99,,,0.00,Acu-Link.com,2013-05-11 18:43:00,
2013-05-11 14:58:00,74.7,63.8,29.75,West,270,7.3,-999.0,69,-99.99,,,0.00,Acu-Link.com,2013-05-11 18:58:00,
2013-05-11 15:14:00,73.0,63.0,29.75,NNE,22,2.2,-999.0,71,-99.99,,,0.00,Acu-Link.com,2013-05-11 19:14:00,
2013-05-11 15:29:00,68.4,64.0,29.75,West,270,2.7,-999.0,86,-99.99,,,0.00,Acu-Link.com,2013-05-11 19:29:00,
2013-05-11 15:44:00,70.9,65.5,29.74,North,0,0.0,-999.0,83,-99.99,,,0.01,Acu-Link.com,2013-05-11 19:44:00,
2013-05-11 16:00:00,72.7,65.1,29.74,East,90,1.1,-999.0,77,-99.99,,,0.01,Acu-Link.com,2013-05-11 20:00:00,
2013-05-11 16:15:00,72.5,64.9,29.73,NE,45,2.2,-999.0,77,-99.99,,,0.01,Acu-Link.com,2013-05-11 20:15:00,
2013-05-11 16:30:00,71.4,66.0,29.74,East,90,2.2,-999.0,83,-99.99,,,0.01,Acu-Link.com,2013-05-11 20:30:00,
2013-05-11 16:45:00,72.0,67.2,29.72,SE,135,2.7,-999.0,85,-99.99,,,0.01,Acu-Link.com,2013-05-11 20:45:00,
2013-05-11 17:00:00,70.7,66.0,29.73,ESE,112,1.7,-999.0,85,-99.99,,,0.01,Acu-Link.com,2013-05-11 21:00:00,
2013-05-11 17:15:00,70.5,66.8,29.73,SSE,157,2.7,-999.0,88,-99.99,,,0.01,Acu-Link.com,2013-05-11 21:15:00,
2013-05-11 17:30:00,69.4,65.4,29.73,SSW,202,3.7,-999.0,87,-99.99,,,0.01,Acu-Link.com,2013-05-11 21:30:00,
2013-05-11 17:45:00,69.3,65.3,29.73,WSW,247,2.7,-999.0,87,-99.99,,,0.01,Acu-Link.com,2013-05-11 21:45:00,
2013-05-11 18:01:00,69.4,65.4,29.72,WSW,247,2.7,-999.0,87,-99.99,,,0.01,Acu-Link.com,2013-05-11 22:01:00,
2013-05-11 18:16:00,70.3,65.9,29.72,WSW,247,2.7,-999.0,86,-99.99,,,0.01,Acu-Link.com,2013-05-11 22:16:00,
2013-05-11 18:31:00,69.6,66.9,29.72,East,90,1.7,-999.0,91,-99.99,,,0.01,Acu-Link.com,2013-05-11 22:31:00,
2013-05-11 18:46:00,68.5,67.0,29.73,ESE,112,0.0,-999.0,95,-99.99,,,0.12,Acu-Link.com,2013-05-11 22:46:00,
2013-05-11 19:01:00,69.1,67.0,29.73,ESE,112,0.0,-999.0,93,-99.99,,,0.12,Acu-Link.com,2013-05-11 23:01:00,
2013-05-11 19:24:00,69.4,67.6,29.74,NNW,337,0.0,-999.0,94,-99.99,,,0.12,Acu-Link.com,2013-05-11 23:24:00,
2013-05-11 19:39:00,70.0,67.2,29.74,ENE,67,1.1,-999.0,91,-99.99,,,0.12,Acu-Link.com,2013-05-11 23:39:00,
2013-05-11 19:54:00,69.4,67.3,29.74,NNE,22,0.0,-999.0,93,-99.99,,,0.12,Acu-Link.com,2013-05-11 23:54:00,
2013-05-11 20:09:00,69.1,67.3,29.74,NNE,22,0.0,-999.0,94,-99.99,,,0.12,Acu-Link.com,2013-05-12 00:09:00,
2013-05-11 20:25:00,67.6,64.6,29.76,NNE,22,0.0,-999.0,90,-99.99,,,0.12,Acu-Link.com,2013-05-12 00:25:00,
2013-05-11 20:41:00,65.5,62.5,29.76,NNW,337,1.7,-999.0,90,-99.99,,,0.12,Acu-Link.com,2013-05-12 00:41:00,
2013-05-11 20:56:00,64.2,60.2,29.77,NNW,337,3.2,-999.0,87,-99.99,,,0.12,Acu-Link.com,2013-05-12 00:56:00,
2013-05-11 21:11:00,63.5,59.6,29.77,West,270,1.7,-999.0,87,-99.99,,,0.12,Acu-Link.com,2013-05-12 01:11:00,
2013-05-11 21:26:00,62.6,59.0,29.78,NNE,22,2.7,-999.0,88,-99.99,,,0.12,Acu-Link.com,2013-05-12 01:26:00,
2013-05-11 21:41:00,62.4,57.8,29.78,NNW,337,2.2,-999.0,85,-99.99,,,0.12,Acu-Link.com,2013-05-12 01:41:00,
2013-05-11 21:56:00,62.2,56.6,29.79,East,90,3.2,-999.0,82,-99.99,,,0.12,Acu-Link.com,2013-05-12 01:56:00,
2013-05-11 22:12:00,61.9,56.7,29.80,North,0,2.2,-999.0,83,-99.99,,,0.12,Acu-Link.com,2013-05-12 02:12:00,
2013-05-11 22:27:00,60.8,54.9,29.81,WNW,292,4.2,-999.0,81,-99.99,,,0.12,Acu-Link.com,2013-05-12 02:27:00,
2013-05-11 22:42:00,60.1,55.2,29.81,NNE,22,0.0,-999.0,84,-99.99,,,0.12,Acu-Link.com,2013-05-12 02:42:00,
2013-05-11 22:57:00,57.7,56.0,29.82,ESE,112,0.0,-999.0,94,-99.99,,,0.12,Acu-Link.com,2013-05-12 02:57:00,
2013-05-11 23:12:00,56.5,54.8,29.82,ESE,112,0.0,-999.0,94,-99.99,,,0.12,Acu-Link.com,2013-05-12 03:12:00,
2013-05-11 23:27:00,55.4,54.3,29.82,NE,45,0.0,-999.0,96,-99.99,,,0.12,Acu-Link.com,2013-05-12 03:27:00,
2013-05-11 23:42:00,54.3,53.5,29.82,ENE,67,0.0,-999.0,97,-99.99,,,0.12,Acu-Link.com,2013-05-12 03:42:00,
2013-05-11 23:57:00,53.4,53.1,29.83,NNE,22,0.0,-999.0,99,-99.99,,,0.12,Acu-Link.com,2013-05-12 03:57:00,